| time (UTC) | temp F | wind direction | speed MPH | gust MPH | rain 1hr in | rain 24hr in | rain mn in | humidity % | barometer mb |
| 20260905111154 | 97 | 135 | 2.0 | 8.0 | 0.00 | 0.00 | 0.00 | 1019.7 | |
| 20260905110147 | 96 | 124 | 4.0 | 5.0 | 0.00 | 0.00 | 0.00 | 1019.7 | |
| 20260905105141 | 96 | 142 | 9.0 | 5.0 | 0.00 | 0.00 | 0.00 | 1019.7 | |
| 20260905104142 | 95 | 135 | 7.0 | 6.0 | 0.00 | 0.00 | 0.00 | 1019.8 | |
| 20260905103145 | 96 | 143 | 9.0 | 8.0 | 0.00 | 0.00 | 0.00 | 1019.7 | |
| 20260905102147 | 95 | 136 | 8.0 | 7.0 | 0.00 | 0.00 | 0.00 | 1019.8 | |
| 20260905101145 | 95 | 108 | 8.0 | 6.0 | 0.00 | 0.00 | 0.00 | 1019.8 | |
| 20260905100148 | 94 | 150 | 6.0 | 12.0 | 0.00 | 0.00 | 0.00 | 1019.7 | |
| 20260905095147 | 94 | 100 | 8.0 | 6.0 | 0.00 | 0.00 | 0.00 | 1020.0 | |
| 20260905094140 | 92 | 245 | 2.0 | 5.0 | 0.00 | 0.00 | 0.00 | 1020.0 | |
| 20260905093140 | 90 | 201 | 2.0 | 2.0 | 0.00 | 0.00 | 0.00 | 1020.0 | |
| 20260905092143 | 88 | 229 | 0.0 | 0.0 | 0.00 | 0.00 | 0.00 | 1020.0 | |
| 20260905091146 | 89 | 229 | 1.0 | 0.0 | 0.00 | 0.00 | 0.00 | 1020.0 | |
| 20260905090148 | 88 | 21 | 0.0 | 0.0 | 0.00 | 0.00 | 0.00 | 1020.0 | |
| 20260905085151 | 87 | 311 | 0.0 | 0.0 | 0.00 | 0.00 | 0.00 | 1020.0 | |
| 20260905084154 | 85 | 56 | 0.0 | 0.0 | 0.00 | 0.00 | 0.00 | 1020.0 | |
| 20260905083148 | 83 | 322 | 4.0 | 3.0 | 0.00 | 0.00 | 0.00 | 1019.9 | |
| 20260905082151 | 82 | 343 | 6.0 | 5.0 | 0.00 | 0.00 | 0.00 | 1019.7 | |
| 20260905081148 | 83 | 13 | 4.0 | 2.0 | 0.00 | 0.00 | 0.00 | 1019.9 | |
| 20260905080151 | 82 | 359 | 3.0 | 4.0 | 0.00 | 0.00 | 0.00 | 1019.8 | |
| 20260905075154 | 80 | 300 | 3.0 | 4.0 | 0.00 | 0.00 | 0.00 | 1019.8 | |
| 20260905074153 | 80 | 330 | 5.0 | 7.0 | 0.00 | 0.00 | 0.00 | 1019.8 | |
| 20260905073154 | 78 | 326 | 3.0 | 3.0 | 0.00 | 0.00 | 0.00 | 1019.8 | |
| 20260905072137 | 77 | 333 | 7.0 | 6.0 | 0.00 | 0.00 | 0.00 | 1019.8 | |
| 20260905071138 | 76 | 301 | 5.0 | 4.0 | 0.00 | 0.00 | 0.00 | 1019.8 | |
| 20260905070136 | 76 | 352 | 7.0 | 6.0 | 0.00 | 0.00 | 0.00 | 1019.7 | |
| 20260905065130 | 75 | 326 | 6.0 | 3.0 | 0.00 | 0.00 | 0.00 | 1019.6 | |
| 20260905064130 | 75 | 17 | 4.0 | 3.0 | 0.00 | 0.00 | 0.00 | 1019.6 | |
| 20260905063133 | 74 | 321 | 7.0 | 8.0 | 0.00 | 0.00 | 0.00 | 1019.5 | |
| 20260905062135 | 74 | 319 | 7.0 | 8.0 | 0.00 | 0.00 | 0.00 | 1019.5 | |
| 20260905061208 | 74 | 330 | 5.0 | 6.0 | 0.00 | 0.00 | 0.00 | 1019.4 | |
| 20260905061131 | 74 | 330 | 5.0 | 6.0 | 0.00 | 0.00 | 0.00 | 1019.4 | |
| 20260905060124 | 74 | 338 | 5.0 | 5.0 | 0.00 | 0.00 | 0.00 | 1019.3 | |
| 20260905055124 | 74 | 338 | 3.0 | 5.0 | 0.00 | 0.00 | 0.00 | 1019.1 | |
| 20260905054124 | 74 | 308 | 2.0 | 2.0 | 0.00 | 0.00 | 0.00 | 1019.0 | |
| 20260905053126 | 74 | 302 | 5.0 | 4.0 | 0.00 | 0.00 | 0.00 | 1019.0 | |
| 20260905052129 | 75 | 304 | 4.0 | 5.0 | 0.00 | 0.00 | 0.00 | 1019.0 | |
| 20260905051132 | 75 | 291 | 6.0 | 6.0 | 0.00 | 0.00 | 0.00 | 1019.0 | |
| 20260905050124 | 75 | 335 | 7.0 | 8.0 | 0.00 | 0.00 | 0.00 | 1018.9 | |
| 20260905045125 | 75 | 322 | 5.0 | 2.0 | 0.00 | 0.00 | 0.00 | 1018.9 | |
| 20260905044127 | 76 | 325 | 5.0 | 5.0 | 0.00 | 0.00 | 0.00 | 1018.9 | |
| 20260905043129 | 75 | 326 | 5.0 | 4.0 | 0.00 | 0.00 | 0.00 | 1018.7 | |
| 20260905042131 | 74 | 14 | 0.0 | 0.0 | 0.00 | 0.00 | 0.00 | 1018.6 | |
| 20260905041133 | 75 | 91 | 2.0 | 2.0 | 0.00 | 0.00 | 0.00 | 1018.6 | |
| 20260905040136 | 75 | 228 | 1.0 | 0.0 | 0.00 | 0.00 | 0.00 | 1018.5 | |
| 20260905035131 | 75 | 323 | 1.0 | 2.0 | 0.00 | 0.00 | 0.00 | 1018.4 | |
| 20260905034131 | 75 | 53 | 0.0 | 0.0 | 0.00 | 0.00 | 0.00 | 1018.5 | |
| 20260905033133 | 75 | 353 | 0.0 | 0.0 | 0.00 | 0.00 | 0.00 | 1018.5 | |
| 20260905032136 | 75 | 274 | 0.0 | 0.0 | 0.00 | 0.00 | 0.00 | 1018.5 | |
| 20260905031138 | 75 | 325 | 3.0 | 2.0 | 0.00 | 0.00 | 0.00 | 1018.4 | |
| 20260905030140 | 75 | 63 | 0.0 | 0.0 | 0.00 | 0.00 | 0.00 | 1018.4 | |
| 20260905025143 | 75 | 83 | 2.0 | 1.0 | 0.00 | 0.00 | 0.00 | 1018.4 | |
| 20260905024135 | 75 | 128 | 2.0 | 3.0 | 0.00 | 0.00 | 0.00 | 1018.3 | |
| 20260905023138 | 76 | 24 | 0.0 | 0.0 | 0.00 | 0.00 | 0.00 | 1018.3 | |
| 20260905022135 | 77 | 295 | 3.0 | 2.0 | 0.00 | 0.00 | 0.00 | 1018.2 | |
| 20260905021136 | 76 | 283 | 3.0 | 4.0 | 0.00 | 0.00 | 0.00 | 1018.3 | |
| 20260905020139 | 75 | 65 | 0.0 | 0.0 | 0.00 | 0.00 | 0.00 | 1018.3 | |
| 20260905015141 | 75 | 162 | 3.0 | 3.0 | 0.00 | 0.00 | 0.00 | 1018.2 | |
| 20260905014144 | 76 | 45 | 0.0 | 0.0 | 0.00 | 0.00 | 0.00 | 1018.3 | |
| 20260905013138 | 77 | 51 | 1.0 | 1.0 | 0.00 | 0.00 | 0.00 | 1018.3 | |
| 20260905012131 | 77 | 46 | 0.0 | 0.0 | 0.00 | 0.00 | 0.00 | 1018.4 | |
| 20260905011129 | 78 | 270 | 3.0 | 3.0 | 0.00 | 0.00 | 0.00 | 1018.3 | |
| 20260905010130 | 78 | 233 | 4.0 | 0.0 | 0.00 | 0.00 | 0.00 | 1018.4 | |
| 20260905005132 | 77 | 169 | 2.0 | 1.0 | 0.00 | 0.00 | 0.00 | 1018.4 | |
| 20260905004129 | 77 | 101 | 2.0 | 2.0 | 0.00 | 0.00 | 0.00 | 1018.4 | |
| 20260905003132 | 78 | 252 | 0.0 | 0.0 | 0.00 | 0.00 | 0.00 | 1018.4 | |
| 20260905002127 | 78 | 271 | 3.0 | 3.0 | 0.00 | 0.00 | 0.00 | 1018.4 | |
| 20260905001129 | 77 | 205 | 2.0 | 1.0 | 0.00 | 0.00 | 0.00 | 1018.3 | |
| 20260905000130 | 78 | 235 | 0.0 | 0.0 | 0.00 | 0.00 | 0.00 | 1018.4 | |
| 20260904235130 | 78 | 235 | 0.0 | 0.0 | 0.00 | 0.00 | 0.00 | 1018.4 | |
| 20260904234132 | 78 | 235 | 0.0 | 0.0 | 0.00 | 0.00 | 0.00 | 1018.4 | |
| 20260904233135 | 78 | 235 | 0.0 | 0.0 | 0.00 | 0.00 | 0.00 | 1018.4 | |
| 20260904232138 | 79 | 197 | 0.0 | 0.0 | 0.00 | 0.00 | 0.00 | 1018.5 | |
| 20260904231125 | 79 | 180 | 0.0 | 0.0 | 0.00 | 0.00 | 0.00 | 1018.5 | |
| 20260904230128 | 79 | 174 | 0.0 | 0.0 | 0.00 | 0.00 | 0.00 | 1018.5 | |
| 20260904225127 | 79 | 174 | 0.0 | 0.0 | 0.00 | 0.00 | 0.00 | 1018.6 | |
| 20260904224123 | 79 | 174 | 0.0 | 0.0 | 0.00 | 0.00 | 0.00 | 1018.6 | |
| 20260904223125 | 79 | 174 | 0.0 | 0.0 | 0.00 | 0.00 | 0.00 | 1018.6 | |
| 20260904222128 | 80 | 174 | 0.0 | 0.0 | 0.00 | 0.00 | 0.00 | 1018.6 | |
| 20260904221312 | 80 | 204 | 2.0 | 0.0 | 0.00 | 0.00 | 0.00 | 1018.6 | |
| 20260904221125 | 80 | 204 | 2.0 | 0.0 | 0.00 | 0.00 | 0.00 | 1018.6 | |
| 20260904220119 | 80 | 211 | 3.0 | 4.0 | 0.00 | 0.00 | 0.00 | 1018.5 | |
| 20260904215121 | 80 | 236 | 0.0 | 0.0 | 0.00 | 0.00 | 0.00 | 1018.5 | |
| 20260904214206 | 81 | 264 | 3.0 | 4.0 | 0.00 | 0.00 | 0.00 | 1018.5 | |
| 20260904214124 | 81 | 264 | 3.0 | 4.0 | 0.00 | 0.00 | 0.00 | 1018.5 | |
| 20260904213126 | 81 | 163 | 0.0 | 0.0 | 0.00 | 0.00 | 0.00 | 1018.5 | |
| 20260904212129 | 81 | 225 | 3.0 | 3.0 | 0.00 | 0.00 | 0.00 | 1018.6 | |
| 20260904211132 | 82 | 228 | 0.0 | 0.0 | 0.00 | 0.00 | 0.00 | 1018.5 | |
| 20260904210134 | 82 | 228 | 0.0 | 0.0 | 0.00 | 0.00 | 0.00 | 1018.6 | |
| 20260904205130 | 82 | 284 | 1.0 | 1.0 | 0.00 | 0.00 | 0.00 | 1018.6 | |
| 20260904204134 | 83 | 233 | 4.0 | 3.0 | 0.00 | 0.00 | 0.00 | 1018.5 | |
| 20260904203136 | 83 | 278 | 0.0 | 0.0 | 0.00 | 0.00 | 0.00 | 1018.5 | |
| 20260904202136 | 83 | 273 | 0.0 | 0.0 | 0.00 | 0.00 | 0.00 | 1018.6 | |
| 20260904201139 | 84 | 276 | 1.0 | 3.0 | 0.00 | 0.00 | 0.00 | 1018.5 | |
| 20260904200141 | 84 | 214 | 2.0 | 1.0 | 0.00 | 0.00 | 0.00 | 1018.5 | |
| 20260904195138 | 84 | 208 | 2.0 | 1.0 | 0.00 | 0.00 | 0.00 | 1018.5 | |
| 20260904194132 | 85 | 194 | 0.0 | 0.0 | 0.00 | 0.00 | 0.00 | 1018.4 | |
| 20260904193135 | 84 | 194 | 0.0 | 0.0 | 0.00 | 0.00 | 0.00 | 1018.3 | |
| 20260904192136 | 85 | 217 | 1.0 | 1.0 | 0.00 | 0.00 | 0.00 | 1018.2 | |
| 20260904191134 | 85 | 232 | 0.0 | 0.0 | 0.00 | 0.00 | 0.00 | 1018.2 | |
| 20260904190137 | 85 | 177 | 2.0 | 2.0 | 0.00 | 0.00 | 0.00 | 1018.1 | |
| 20260904185139 | 85 | 238 | 3.0 | 3.0 | 0.00 | 0.00 | 0.00 | 1017.8 | |
| 20260904184230 | 86 | 160 | 2.0 | 2.0 | 0.00 | 0.00 | 0.00 | 1017.6 | |
| 20260904184142 | 86 | 160 | 2.0 | 2.0 | 0.00 | 0.00 | 0.00 | 1017.6 | |
| 20260904183130 | 86 | 236 | 4.0 | 3.0 | 0.00 | 0.00 | 0.00 | 1017.4 | |
| 20260904182131 | 87 | 200 | 4.0 | 3.0 | 0.00 | 0.00 | 0.00 | 1017.3 | |
| 20260904181133 | 88 | 197 | 3.0 | 4.0 | 0.00 | 0.00 | 0.00 | 1017.2 | |
| 20260904180132 | 87 | 187 | 6.0 | 6.0 | 0.00 | 0.00 | 0.00 | 1017.0 | |
| 20260904175135 | 88 | 214 | 5.0 | 7.0 | 0.00 | 0.00 | 0.00 | 1017.0 | |
| 20260904174137 | 89 | 224 | 3.0 | 5.0 | 0.00 | 0.00 | 0.00 | 1017.0 | |
| 20260904173140 | 89 | 243 | 6.0 | 6.0 | 0.00 | 0.00 | 0.00 | 1016.9 | |
| 20260904172128 | 91 | 218 | 4.0 | 5.0 | 0.00 | 0.00 | 0.00 | 1016.8 | |
| 20260904171124 | 91 | 225 | 6.0 | 3.0 | 0.00 | 0.00 | 0.00 | 1016.7 | |
| 20260904170126 | 92 | 229 | 5.0 | 4.0 | 0.00 | 0.00 | 0.00 | 1016.5 | |
| 20260904165123 | 93 | 226 | 4.0 | 9.0 | 0.00 | 0.00 | 0.00 | 1016.4 | |
| 20260904164448 | 93 | 256 | 5.0 | 6.0 | 0.00 | 0.00 | 0.00 | 1016.3 | |
| 20260904164126 | 93 | 256 | 5.0 | 6.0 | 0.00 | 0.00 | 0.00 | 1016.3 | |
| 20260904163126 | 93 | 235 | 6.0 | 8.0 | 0.00 | 0.00 | 0.00 | 1016.2 | |
| 20260904162129 | 93 | 224 | 6.0 | 4.0 | 0.00 | 0.00 | 0.00 | 1016.2 | |
| 20260904161118 | 94 | 255 | 6.0 | 9.0 | 0.00 | 0.00 | 0.00 | 1016.3 | |
| 20260904160121 | 93 | 250 | 7.0 | 5.0 | 0.00 | 0.00 | 0.00 | 1016.2 | |
| 20260904155124 | 94 | 243 | 6.0 | 5.0 | 0.00 | 0.00 | 0.00 | 1016.4 | |
| 20260904154126 | 94 | 243 | 8.0 | 4.0 | 0.00 | 0.00 | 0.00 | 1016.3 | |
| 20260904153129 | 92 | 243 | 10.0 | 5.0 | 0.00 | 0.00 | 0.00 | 1016.4 | |
| 20260904152132 | 94 | 181 | 7.0 | 10.0 | 0.00 | 0.00 | 0.00 | 1016.2 | |
| 20260904151129 | 95 | 214 | 8.0 | 8.0 | 0.00 | 0.00 | 0.00 | 1016.2 | |
| 20260904150116 | 95 | 198 | 6.0 | 6.0 | 0.00 | 0.00 | 0.00 | 1016.1 | |
| 20260904145118 | 96 | 197 | 7.0 | 7.0 | 0.00 | 0.00 | 0.00 | 1016.1 | |
| 20260904144121 | 95 | 198 | 10.0 | 7.0 | 0.00 | 0.00 | 0.00 | 1016.0 | |
| 20260904143124 | 98 | 188 | 8.0 | 11.0 | 0.00 | 0.00 | 0.00 | 1016.0 | |
| 20260904142126 | 97 | 238 | 7.0 | 9.0 | 0.00 | 0.00 | 0.00 | 1016.0 | |
| 20260904141128 | 97 | 183 | 7.0 | 9.0 | 0.00 | 0.00 | 0.00 | 1016.0 | |
| 20260904140131 | 98 | 207 | 8.0 | 8.0 | 0.00 | 0.00 | 0.00 | 1016.1 | |
| 20260904135127 | 97 | 205 | 8.0 | 9.0 | 0.00 | 0.00 | 0.00 | 1016.0 | |
| 20260904134127 | 98 | 183 | 7.0 | 5.0 | 0.00 | 0.00 | 0.00 | 1016.1 | |
| 20260904133125 | 97 | 246 | 9.0 | 7.0 | 0.00 | 0.00 | 0.00 | 1016.2 | |
| 20260904132126 | 98 | 211 | 7.0 | 8.0 | 0.00 | 0.00 | 0.00 | 1016.3 | |
| 20260904131126 | 99 | 156 | 5.0 | 8.0 | 0.00 | 0.00 | 0.00 | 1016.3 | |
| 20260904130125 | 99 | 207 | 5.0 | 4.0 | 0.00 | 0.00 | 0.00 | 1016.4 | |
| 20260904125128 | 98 | 143 | 7.0 | 11.0 | 0.00 | 0.00 | 0.00 | 1016.5 | |
| 20260904124118 | 98 | 180 | 5.0 | 10.0 | 0.00 | 0.00 | 0.00 | 1016.6 | |
| 20260904123120 | 98 | 158 | 9.0 | 5.0 | 0.00 | 0.00 | 0.00 | 1016.6 | |
| 20260904122109 | 97 | 225 | 7.0 | 1.0 | 0.00 | 0.00 | 0.00 | 1016.8 | |
| 20260904121111 | 98 | 114 | 7.0 | 7.0 | 0.00 | 0.00 | 0.00 | 1016.8 | |
| 20260904120113 | 97 | 113 | 5.0 | 5.0 | 0.00 | 0.00 | 0.00 | 1017.0 | |
| 20260904115114 | 96 | 163 | 6.0 | 1.0 | 0.00 | 0.00 | 0.00 | 1017.0 | |
| 20260904114106 | 97 | 107 | 5.0 | 5.0 | 0.00 | 0.00 | 0.00 | 1017.2 | |
| 20260904113055 | 96 | 141 | 2.0 | 7.0 | 0.00 | 0.00 | 0.00 | 1017.3 | |
| 20260904112057 | 96 | 146 | 5.0 | 4.0 | 0.00 | 0.00 | 0.00 | 1017.4 |